createdAt,value
2022-10-08T00:01:08.021Z,82.91
2022-10-08T00:04:11.375Z,83.81
2022-10-08T00:07:13.533Z,83.47
2022-10-08T00:10:15.625Z,83.54
2022-10-08T00:13:18.051Z,83.76
2022-10-08T00:16:22.571Z,83.79
2022-10-08T00:19:24.819Z,82.65
2022-10-08T00:22:27.268Z,83.54
2022-10-08T00:25:29.546Z,83.62
2022-10-08T00:28:31.777Z,83.65
2022-10-08T00:31:40.703Z,83.75
2022-10-08T00:34:44.209Z,83.66
2022-10-08T00:37:46.470Z,83.48
2022-10-08T00:40:48.764Z,83.38
2022-10-08T00:43:57.663Z,84.08
2022-10-08T00:46:59.803Z,83.86
2022-10-08T00:50:32.379Z,83.22
2022-10-08T00:53:35.331Z,84.20
2022-10-08T00:56:40.142Z,83.69
2022-10-08T00:59:42.498Z,83.91
2022-10-08T01:02:45.556Z,83.92
2022-10-08T01:06:04.677Z,85.06
2022-10-08T01:09:47.419Z,84.82
2022-10-08T01:12:52.092Z,84.42
2022-10-08T01:16:02.896Z,85.09
2022-10-08T01:19:17.019Z,83.39
2022-10-08T01:22:37.837Z,83.99
2022-10-08T01:25:45.832Z,84.04
2022-10-08T01:29:08.322Z,83.26
2022-10-08T01:32:17.917Z,83.71
2022-10-08T01:35:26.656Z,83.31
2022-10-08T01:38:34.046Z,83.63
2022-10-08T01:41:36.594Z,83.12
2022-10-08T01:44:48.868Z,83.44
2022-10-08T01:47:57.442Z,83.45
2022-10-08T01:51:03.174Z,83.22
2022-10-08T01:54:09.727Z,82.58
2022-10-08T01:57:12.267Z,82.90
2022-10-08T02:00:15.560Z,83.40
2022-10-08T02:03:19.200Z,84.21
2022-10-08T02:06:21.519Z,83.87
2022-10-08T02:09:26.520Z,83.51
2022-10-08T02:12:29.067Z,83.96
2022-10-08T02:16:03.000Z,84.67
2022-10-08T02:19:44.114Z,84.22
2022-10-08T02:22:59.227Z,84.96
2022-10-08T02:26:04.377Z,85.00
2022-10-08T02:29:35.923Z,84.89
2022-10-08T02:33:10.873Z,84.59
2022-10-08T02:36:17.636Z,84.83
2022-10-08T02:39:21.113Z,84.40
2022-10-08T02:42:27.716Z,84.14
2022-10-08T02:45:43.577Z,83.93
2022-10-08T02:48:53.248Z,83.73
2022-10-08T02:51:57.201Z,84.13
2022-10-08T02:55:01.627Z,83.87
2022-10-08T02:58:07.041Z,83.79
2022-10-08T03:01:18.431Z,84.57
2022-10-08T03:04:25.233Z,84.00
2022-10-08T03:07:31.158Z,83.38
2022-10-08T03:10:37.665Z,84.60
2022-10-08T03:13:46.451Z,84.77
2022-10-08T03:16:49.147Z,85.97
2022-10-08T03:19:51.959Z,85.74
2022-10-08T03:22:56.771Z,86.72
2022-10-08T03:25:58.819Z,86.82
2022-10-08T03:29:00.797Z,87.56
2022-10-08T03:32:03.025Z,86.30
2022-10-08T03:35:05.187Z,86.84
2022-10-08T03:38:07.173Z,87.13
2022-10-08T03:41:09.918Z,86.64
2022-10-08T03:44:12.612Z,86.64
2022-10-08T03:47:14.613Z,87.42
2022-10-08T03:50:16.716Z,86.55
2022-10-08T03:53:19.426Z,86.13
2022-10-08T03:56:25.954Z,87.39
2022-10-08T03:59:28.112Z,86.42
2022-10-08T04:02:30.262Z,86.41
2022-10-08T04:05:32.459Z,86.35
2022-10-08T04:08:35.341Z,86.21
2022-10-08T04:11:37.680Z,87.06
2022-10-08T04:14:40.447Z,86.88
2022-10-08T04:17:43.045Z,86.33
2022-10-08T04:20:45.123Z,86.32
2022-10-08T04:23:49.411Z,85.85
2022-10-08T04:26:51.627Z,84.98
2022-10-08T04:29:53.689Z,84.40
2022-10-08T04:32:57.984Z,81.41
2022-10-08T04:36:01.414Z,78.75
2022-10-08T04:39:03.793Z,77.28
2022-10-08T04:42:05.984Z,76.21
2022-10-08T04:45:08.392Z,75.62
2022-10-08T04:48:10.748Z,76.30
2022-10-08T04:51:12.829Z,76.58
2022-10-08T04:54:15.038Z,77.85
2022-10-08T04:57:17.148Z,79.62
2022-10-08T05:00:19.572Z,81.68
2022-10-08T05:03:21.763Z,83.61
2022-10-08T05:06:27.204Z,85.96
2022-10-08T05:09:29.248Z,85.71
2022-10-08T05:12:31.278Z,85.04
2022-10-08T05:15:35.338Z,84.84
2022-10-08T05:18:38.188Z,84.69
2022-10-08T05:21:40.462Z,85.75
2022-10-08T05:24:42.517Z,87.15
2022-10-08T05:27:44.568Z,89.87
2022-10-08T05:30:46.802Z,89.33
2022-10-08T05:33:49.220Z,89.44
2022-10-08T05:36:51.402Z,90.10
2022-10-08T05:39:53.421Z,90.13
2022-10-08T05:42:55.463Z,90.23
2022-10-08T05:45:57.547Z,90.36
2022-10-08T05:49:01.495Z,91.47
2022-10-08T05:52:03.936Z,91.25
2022-10-08T05:55:08.065Z,92.04
2022-10-08T05:58:10.845Z,94.66
2022-10-08T06:01:20.413Z,92.86
2022-10-08T06:04:22.835Z,91.97
2022-10-08T06:07:26.055Z,90.01
2022-10-08T06:10:28.738Z,88.47
2022-10-08T06:13:31.131Z,86.36
2022-10-08T06:16:33.755Z,84.12
2022-10-08T06:19:37.386Z,82.11
2022-10-08T06:22:39.499Z,80.93
2022-10-08T06:25:41.573Z,79.60
2022-10-08T06:28:44.257Z,78.59
2022-10-08T06:31:46.853Z,78.38
2022-10-08T06:34:48.943Z,77.61
2022-10-08T06:37:51.031Z,77.82
2022-10-08T06:40:53.109Z,78.77
2022-10-08T06:43:55.877Z,77.39
2022-10-08T06:46:57.858Z,77.67
2022-10-08T06:50:01.701Z,78.14
2022-10-08T06:53:06.131Z,78.31
2022-10-08T06:56:19.314Z,78.47
2022-10-08T06:59:21.442Z,77.44
2022-10-08T07:02:23.842Z,77.78
2022-10-08T07:05:26.006Z,77.54
2022-10-08T07:08:29.959Z,77.56
2022-10-08T07:11:33.781Z,77.42
2022-10-08T07:14:35.937Z,76.65
2022-10-08T07:17:38.117Z,77.17
2022-10-08T07:20:40.208Z,77.00
2022-10-08T07:23:42.634Z,76.81
2022-10-08T07:26:44.659Z,77.12
2022-10-08T07:29:47.048Z,77.11
2022-10-08T07:32:53.728Z,76.55
2022-10-08T07:35:55.775Z,76.89
2022-10-08T07:39:07.741Z,76.44
2022-10-08T07:42:10.376Z,75.94
2022-10-08T07:45:12.634Z,75.15
2022-10-08T07:48:20.736Z,75.93
2022-10-08T07:51:23.645Z,76.02
2022-10-08T07:54:25.607Z,80.90
2022-10-08T07:57:28.308Z,81.75
2022-10-08T08:00:30.647Z,81.97
2022-10-08T08:03:33.389Z,82.65
2022-10-08T08:06:43.589Z,82.93
2022-10-08T08:09:47.341Z,83.29
2022-10-08T08:12:49.835Z,82.21
2022-10-08T08:16:00.354Z,81.98
2022-10-08T08:19:03.339Z,80.60
2022-10-08T08:22:05.358Z,79.04
2022-10-08T08:25:07.833Z,77.18
2022-10-08T08:28:09.895Z,76.32
2022-10-08T08:31:23.668Z,76.08
2022-10-08T08:34:26.260Z,76.46
2022-10-08T08:37:28.329Z,77.27
2022-10-08T08:40:30.740Z,77.33
2022-10-08T08:43:37.586Z,76.41
2022-10-08T08:46:45.238Z,76.05
2022-10-08T08:49:54.107Z,77.30
2022-10-08T08:52:57.764Z,78.90
2022-10-08T08:56:05.061Z,76.89
2022-10-08T08:59:27.582Z,73.81
2022-10-08T09:02:36.099Z,72.29
2022-10-08T09:05:44.121Z,71.24
2022-10-08T09:09:15.169Z,72.89
2022-10-08T09:12:22.375Z,71.62
2022-10-08T09:15:31.355Z,70.74
2022-10-08T09:18:33.405Z,70.37
2022-10-08T09:21:35.515Z,69.49
2022-10-08T09:24:39.186Z,68.54
2022-10-08T09:27:49.251Z,69.01
2022-10-08T09:30:51.475Z,70.48
2022-10-08T09:33:57.463Z,71.06
2022-10-08T09:37:06.306Z,69.71
2022-10-08T09:40:23.519Z,69.35
2022-10-08T09:43:25.765Z,69.94
2022-10-08T09:46:30.390Z,69.79
2022-10-08T09:49:35.051Z,68.64
2022-10-08T09:52:40.434Z,68.37
2022-10-08T09:55:50.987Z,67.89
2022-10-08T09:58:56.579Z,67.61
2022-10-08T10:01:59.247Z,68.08
2022-10-08T10:05:04.718Z,68.45
2022-10-08T10:08:07.113Z,68.31
2022-10-08T10:11:20.133Z,69.19
2022-10-08T10:14:31.116Z,67.34
2022-10-08T10:17:43.281Z,67.36
2022-10-08T10:20:54.084Z,68.70
2022-10-08T10:24:14.340Z,68.80
2022-10-08T10:27:23.421Z,68.21
2022-10-08T10:30:26.146Z,66.73
2022-10-08T10:33:33.217Z,66.22
2022-10-08T10:36:40.265Z,64.08
2022-10-08T10:39:52.094Z,63.02
2022-10-08T10:43:09.015Z,62.19
2022-10-08T10:46:22.991Z,61.23
2022-10-08T10:49:38.489Z,60.28
2022-10-08T10:52:51.075Z,59.66
2022-10-08T10:56:11.629Z,59.23
2022-10-08T10:59:42.206Z,59.08
2022-10-08T11:02:56.919Z,58.98
2022-10-08T11:06:35.031Z,58.89
2022-10-08T11:09:54.232Z,57.76
2022-10-08T11:13:22.531Z,58.84
2022-10-08T11:16:50.358Z,58.50
2022-10-08T11:19:58.242Z,59.21
2022-10-08T11:24:01.625Z,59.58
2022-10-08T11:27:06.728Z,58.74
2022-10-08T11:30:18.060Z,58.74
2022-10-08T11:33:21.416Z,58.51
2022-10-08T11:36:45.580Z,58.87
2022-10-08T11:40:00.142Z,59.54
2022-10-08T11:43:11.136Z,60.03
2022-10-08T11:46:23.254Z,60.12
2022-10-08T11:49:27.259Z,60.04
2022-10-08T11:52:31.779Z,60.94
2022-10-08T11:55:33.981Z,60.99
2022-10-08T11:58:36.042Z,61.33
2022-10-08T12:01:53.398Z,61.04
2022-10-08T12:04:58.973Z,61.25
2022-10-08T12:08:04.032Z,62.07
2022-10-08T12:11:37.651Z,62.01
2022-10-08T12:14:47.247Z,61.82
2022-10-08T12:18:13.013Z,62.89
2022-10-08T12:21:18.157Z,62.67
2022-10-08T12:24:38.569Z,62.85
2022-10-08T12:27:41.314Z,63.11
2022-10-08T12:30:52.205Z,63.49
2022-10-08T12:34:00.122Z,63.55
2022-10-08T12:37:16.328Z,63.70
2022-10-08T12:40:34.793Z,63.97
2022-10-08T12:43:44.576Z,63.56
2022-10-08T12:47:01.798Z,63.27
2022-10-08T12:50:31.130Z,63.19
2022-10-08T12:53:35.503Z,63.50
2022-10-08T12:56:45.394Z,64.03
2022-10-08T12:59:50.743Z,64.10
2022-10-08T13:03:01.101Z,63.98
2022-10-08T13:06:35.642Z,63.27
2022-10-08T13:09:37.656Z,63.66
2022-10-08T13:12:40.594Z,63.65
2022-10-08T13:15:42.664Z,63.71
2022-10-08T13:18:50.612Z,63.70
2022-10-08T13:22:08.119Z,64.27
2022-10-08T13:25:39.082Z,65.24
2022-10-08T13:28:59.011Z,64.42
2022-10-08T13:32:18.497Z,65.88
2022-10-08T13:35:23.866Z,64.02
2022-10-08T13:38:30.590Z,63.25
2022-10-08T13:41:32.559Z,60.03
2022-10-08T13:44:36.925Z,53.94
2022-10-08T13:47:38.843Z,52.32
2022-10-08T13:50:52.696Z,52.61
2022-10-08T13:53:57.162Z,52.85
2022-10-08T13:57:00.463Z,54.21
2022-10-08T14:00:02.635Z,53.91
2022-10-08T14:03:07.419Z,53.18
2022-10-08T14:06:09.608Z,51.86
2022-10-08T14:09:23.924Z,52.18
2022-10-08T14:12:30.218Z,51.66
2022-10-08T14:15:32.185Z,51.81
2022-10-08T14:18:34.201Z,53.13
2022-10-08T14:21:38.018Z,53.42
2022-10-08T14:24:40.365Z,53.08
2022-10-08T14:27:42.795Z,53.92
2022-10-08T14:30:44.925Z,51.71
2022-10-08T14:33:47.031Z,51.94
2022-10-08T14:36:51.851Z,53.71
2022-10-08T14:39:54.694Z,53.29
2022-10-08T14:42:56.687Z,55.00
2022-10-08T14:45:59.199Z,54.24
2022-10-08T14:49:01.323Z,54.08
2022-10-08T14:52:03.440Z,54.37
2022-10-08T14:55:06.443Z,54.88
2022-10-08T14:58:08.613Z,55.04
2022-10-08T15:01:10.691Z,55.57
2022-10-08T15:04:15.059Z,54.29
2022-10-08T15:07:17.966Z,56.24
2022-10-08T15:10:20.030Z,56.94
2022-10-08T15:13:23.047Z,57.55
2022-10-08T15:16:26.284Z,58.45
2022-10-08T15:19:28.639Z,59.07
2022-10-08T15:22:31.289Z,61.30
2022-10-08T15:25:33.764Z,63.82
2022-10-08T15:28:38.502Z,66.39
2022-10-08T15:31:43.058Z,66.82
2022-10-08T15:34:45.205Z,68.37
2022-10-08T15:37:47.622Z,69.11
2022-10-08T15:40:52.860Z,69.04
2022-10-08T15:44:09.501Z,68.99
2022-10-08T15:47:12.558Z,69.25
2022-10-08T15:50:16.366Z,68.26
2022-10-08T15:53:18.510Z,68.46
2022-10-08T15:56:20.859Z,69.32
2022-10-08T15:59:25.144Z,69.11
2022-10-08T16:02:27.586Z,68.39
2022-10-08T16:05:29.913Z,68.55
2022-10-08T16:08:35.292Z,68.33
2022-10-08T16:11:37.920Z,69.48
2022-10-08T16:14:39.842Z,69.86
2022-10-08T16:17:41.964Z,71.57
2022-10-08T16:20:44.155Z,71.54
2022-10-08T16:23:46.378Z,72.25
2022-10-08T16:26:49.032Z,76.52
2022-10-08T16:29:51.215Z,73.79
2022-10-08T16:32:54.170Z,72.91
2022-10-08T16:35:57.131Z,71.94
2022-10-08T16:38:59.333Z,71.59
2022-10-08T16:42:01.388Z,70.65
2022-10-08T16:45:04.367Z,70.54
2022-10-08T16:48:08.511Z,70.59
2022-10-08T16:51:11.823Z,70.37
2022-10-08T16:54:16.373Z,70.35
2022-10-08T16:57:20.544Z,70.25
2022-10-08T17:00:22.677Z,70.66
2022-10-08T17:03:26.597Z,71.48
2022-10-08T17:06:29.372Z,71.08
2022-10-08T17:09:32.899Z,71.50
2022-10-08T17:12:35.115Z,70.56
2022-10-08T17:15:37.379Z,71.31
2022-10-08T17:18:41.774Z,70.96
2022-10-08T17:21:43.933Z,70.59
2022-10-08T17:24:46.895Z,70.88
2022-10-08T17:27:48.975Z,71.92
2022-10-08T17:30:51.051Z,71.36
2022-10-08T17:33:54.132Z,71.62
2022-10-08T17:36:56.177Z,71.97
2022-10-08T17:39:58.251Z,71.76
2022-10-08T17:43:00.468Z,72.36
2022-10-08T17:46:20.502Z,72.33
2022-10-08T17:49:23.344Z,71.76
2022-10-08T17:52:25.504Z,72.28
2022-10-08T17:55:29.068Z,73.12
2022-10-08T17:58:32.083Z,73.00
2022-10-08T18:01:40.215Z,73.18
2022-10-08T18:04:46.103Z,73.13
2022-10-08T18:07:48.145Z,73.76
2022-10-08T18:10:52.144Z,74.02
2022-10-08T18:13:54.679Z,74.38
2022-10-08T18:16:57.561Z,74.54
2022-10-08T18:20:00.744Z,74.10
2022-10-08T18:23:04.912Z,74.43
2022-10-08T18:26:23.608Z,74.94
2022-10-08T18:29:28.230Z,75.36
2022-10-08T18:32:30.767Z,75.24
2022-10-08T18:35:33.507Z,75.51
2022-10-08T18:38:35.833Z,75.35
2022-10-08T18:41:41.611Z,75.27
2022-10-08T18:44:44.128Z,74.66
2022-10-08T18:47:48.132Z,77.03
2022-10-08T18:50:50.243Z,76.64
2022-10-08T18:53:54.271Z,76.79
2022-10-08T18:57:00.173Z,77.71
2022-10-08T19:00:02.756Z,78.58
2022-10-08T19:03:06.200Z,78.13
2022-10-08T19:06:08.506Z,77.41
2022-10-08T19:09:12.845Z,77.48
2022-10-08T19:12:15.129Z,77.66
2022-10-08T19:15:17.851Z,77.74
2022-10-08T19:18:20.212Z,78.56
2022-10-08T19:21:23.812Z,78.44
2022-10-08T19:24:27.156Z,78.65
2022-10-08T19:27:29.228Z,78.56
2022-10-08T19:30:34.427Z,78.75
2022-10-08T19:33:36.945Z,78.53
2022-10-08T19:36:43.171Z,78.65
2022-10-08T19:39:47.594Z,78.06
2022-10-08T19:42:51.456Z,78.28
2022-10-08T19:45:54.167Z,78.58
2022-10-08T19:49:00.338Z,78.61
2022-10-08T19:52:02.643Z,78.25
2022-10-08T19:55:06.834Z,77.45
2022-10-08T19:58:11.727Z,77.68
2022-10-08T20:01:19.081Z,77.32
2022-10-08T20:04:23.641Z,76.94
2022-10-08T20:07:26.031Z,77.30
2022-10-08T20:10:28.166Z,77.21
2022-10-08T20:13:31.133Z,77.62
2022-10-08T20:16:36.323Z,77.78
2022-10-08T20:19:38.605Z,77.76
2022-10-08T20:22:40.897Z,78.07
2022-10-08T20:25:43.061Z,78.12
2022-10-08T20:28:47.542Z,78.43
2022-10-08T20:31:54.548Z,78.49
2022-10-08T20:34:56.949Z,78.63
2022-10-08T20:37:59.055Z,78.68
2022-10-08T20:41:01.211Z,78.43
2022-10-08T20:47:20.868Z,78.27
2022-10-08T20:50:23.532Z,78.88
2022-10-08T20:53:27.623Z,78.59
2022-10-08T20:56:34.664Z,78.44
2022-10-08T20:59:38.166Z,78.91
2022-10-08T21:02:42.260Z,79.11
2022-10-08T21:05:46.972Z,79.30
2022-10-08T21:08:53.151Z,78.34
2022-10-08T21:11:55.509Z,79.26
2022-10-08T21:14:57.737Z,78.78
2022-10-08T21:18:00.126Z,79.63
2022-10-08T21:21:10.513Z,79.01
2022-10-08T21:24:15.163Z,79.19
2022-10-08T21:27:17.545Z,78.96
2022-10-08T21:30:19.793Z,79.31
2022-10-08T21:33:21.887Z,79.40
2022-10-08T21:36:30.476Z,80.18
2022-10-08T21:39:32.534Z,79.91
2022-10-08T21:42:34.669Z,78.65
2022-10-08T21:45:36.968Z,79.58
2022-10-08T21:48:39.719Z,79.48
2022-10-08T21:51:42.372Z,79.05
2022-10-08T21:54:44.769Z,79.07
2022-10-08T21:57:50.044Z,79.69
2022-10-08T22:00:53.864Z,79.62
2022-10-08T22:04:03.682Z,79.05
2022-10-08T22:07:05.726Z,80.17
2022-10-08T22:10:08.556Z,80.08
2022-10-08T22:13:10.773Z,79.29
2022-10-08T22:16:18.503Z,79.36
2022-10-08T22:19:21.992Z,79.33
2022-10-08T22:22:25.174Z,79.35
2022-10-08T22:25:27.951Z,78.92
2022-10-08T22:28:31.268Z,78.99
2022-10-08T22:31:33.658Z,79.22
2022-10-08T22:34:35.965Z,79.31
2022-10-08T22:37:38.083Z,78.81
2022-10-08T22:40:40.496Z,78.82
2022-10-08T22:43:43.754Z,78.54
2022-10-08T22:46:46.258Z,79.40
2022-10-08T22:49:48.295Z,79.28
2022-10-08T22:52:51.994Z,78.59
2022-10-08T22:55:54.434Z,79.15
2022-10-08T22:58:58.510Z,79.71
2022-10-08T23:02:01.077Z,80.34
2022-10-08T23:05:04.068Z,79.39
2022-10-08T23:08:06.055Z,79.94
2022-10-08T23:11:08.538Z,79.83
2022-10-08T23:14:11.004Z,79.05
2022-10-08T23:17:13.197Z,79.52
2022-10-08T23:20:15.311Z,79.60
2022-10-08T23:23:17.660Z,79.44
2022-10-08T23:26:20.871Z,80.09
2022-10-08T23:29:23.044Z,80.30
2022-10-08T23:32:25.150Z,79.46
2022-10-08T23:35:28.581Z,79.41
2022-10-08T23:38:30.684Z,79.16
2022-10-08T23:41:34.085Z,79.32
2022-10-08T23:44:37.073Z,78.42
2022-10-08T23:47:41.212Z,78.64
2022-10-08T23:50:43.362Z,78.97
2022-10-08T23:53:46.426Z,78.99
2022-10-08T23:56:49.443Z,79.12
2022-10-08T23:59:51.654Z,78.70
